sensor_id;sensor_type;location;lat;lon;timestamp;P1;durP1;ratioP1;P2;durP2;ratioP2
56161;SDS011;42045;52.986;6.014;2023-03-01T00:01:46;27.48;;;20.75;;
56161;SDS011;42045;52.986;6.014;2023-03-01T00:04:11;32.20;;;22.02;;
56161;SDS011;42045;52.986;6.014;2023-03-01T00:06:37;27.02;;;20.23;;
56161;SDS011;42045;52.986;6.014;2023-03-01T00:09:03;29.17;;;21.00;;
56161;SDS011;42045;52.986;6.014;2023-03-01T00:11:29;27.40;;;20.27;;
56161;SDS011;42045;52.986;6.014;2023-03-01T00:13:58;25.85;;;20.08;;
56161;SDS011;42045;52.986;6.014;2023-03-01T00:16:32;24.75;;;18.40;;
56161;SDS011;42045;52.986;6.014;2023-03-01T00:19:00;33.60;;;23.95;;
56161;SDS011;42045;52.986;6.014;2023-03-01T00:21:26;28.08;;;21.08;;
56161;SDS011;42045;52.986;6.014;2023-03-01T00:23:53;29.52;;;20.92;;
56161;SDS011;42045;52.986;6.014;2023-03-01T00:26:19;29.92;;;21.08;;
56161;SDS011;42045;52.986;6.014;2023-03-01T00:28:49;28.35;;;21.58;;
56161;SDS011;42045;52.986;6.014;2023-03-01T00:31:17;29.48;;;23.20;;
56161;SDS011;42045;52.986;6.014;2023-03-01T00:33:44;31.35;;;22.63;;
56161;SDS011;42045;52.986;6.014;2023-03-01T00:36:11;30.58;;;22.48;;
56161;SDS011;42045;52.986;6.014;2023-03-01T00:38:40;36.17;;;23.75;;
56161;SDS011;42045;52.986;6.014;2023-03-01T00:41:08;31.83;;;22.20;;
56161;SDS011;42045;52.986;6.014;2023-03-01T00:43:36;31.33;;;22.60;;
56161;SDS011;42045;52.986;6.014;2023-03-01T00:46:03;33.92;;;24.42;;
56161;SDS011;42045;52.986;6.014;2023-03-01T00:48:30;34.03;;;24.50;;
56161;SDS011;42045;52.986;6.014;2023-03-01T00:50:56;40.95;;;25.98;;
56161;SDS011;42045;52.986;6.014;2023-03-01T00:53:22;31.17;;;23.98;;
56161;SDS011;42045;52.986;6.014;2023-03-01T00:55:48;34.53;;;25.45;;
56161;SDS011;42045;52.986;6.014;2023-03-01T00:58:13;30.48;;;22.77;;
56161;SDS011;42045;52.986;6.014;2023-03-01T01:00:39;22.08;;;17.85;;
56161;SDS011;42045;52.986;6.014;2023-03-01T01:03:04;20.75;;;17.23;;
56161;SDS011;42045;52.986;6.014;2023-03-01T01:05:30;24.50;;;19.20;;
56161;SDS011;42045;52.986;6.014;2023-03-01T01:07:59;27.88;;;20.17;;
56161;SDS011;42045;52.986;6.014;2023-03-01T01:10:24;25.10;;;20.88;;
56161;SDS011;42045;52.986;6.014;2023-03-01T01:12:50;23.67;;;17.85;;
56161;SDS011;42045;52.986;6.014;2023-03-01T01:15:15;24.67;;;19.15;;
56161;SDS011;42045;52.986;6.014;2023-03-01T01:17:41;38.05;;;17.10;;
56161;SDS011;42045;52.986;6.014;2023-03-01T01:20:07;199.95;;;23.50;;
56161;SDS011;42045;52.986;6.014;2023-03-01T01:22:33;217.32;;;25.42;;
56161;SDS011;42045;52.986;6.014;2023-03-01T01:24:59;221.00;;;27.67;;
56161;SDS011;42045;52.986;6.014;2023-03-01T01:27:25;192.10;;;25.90;;
56161;SDS011;42045;52.986;6.014;2023-03-01T01:29:52;261.25;;;27.17;;
56161;SDS011;42045;52.986;6.014;2023-03-01T01:32:18;259.98;;;30.23;;
56161;SDS011;42045;52.986;6.014;2023-03-01T01:34:43;159.82;;;24.67;;
56161;SDS011;42045;52.986;6.014;2023-03-01T01:37:09;142.60;;;23.75;;
56161;SDS011;42045;52.986;6.014;2023-03-01T01:39:35;106.85;;;23.45;;
56161;SDS011;42045;52.986;6.014;2023-03-01T01:42:01;95.25;;;19.85;;
56161;SDS011;42045;52.986;6.014;2023-03-01T01:44:27;90.68;;;19.45;;
56161;SDS011;42045;52.986;6.014;2023-03-01T01:47:07;159.35;;;20.45;;
56161;SDS011;42045;52.986;6.014;2023-03-01T01:49:49;132.65;;;17.25;;
56161;SDS011;42045;52.986;6.014;2023-03-01T01:57:37;228.27;;;22.52;;
56161;SDS011;42045;52.986;6.014;2023-03-01T02:00:08;197.18;;;22.88;;
56161;SDS011;42045;52.986;6.014;2023-03-01T02:02:39;171.55;;;23.27;;
56161;SDS011;42045;52.986;6.014;2023-03-01T02:08:14;93.10;;;20.00;;
56161;SDS011;42045;52.986;6.014;2023-03-01T02:10:43;103.65;;;20.35;;
56161;SDS011;42045;52.986;6.014;2023-03-01T02:13:10;121.93;;;22.02;;
56161;SDS011;42045;52.986;6.014;2023-03-01T02:15:37;139.00;;;23.20;;
56161;SDS011;42045;52.986;6.014;2023-03-01T02:18:05;158.20;;;23.55;;
56161;SDS011;42045;52.986;6.014;2023-03-01T02:20:38;189.40;;;27.20;;
56161;SDS011;42045;52.986;6.014;2023-03-01T02:23:17;99.78;;;21.58;;
56161;SDS011;42045;52.986;6.014;2023-03-01T02:26:01;117.13;;;22.00;;
56161;SDS011;42045;52.986;6.014;2023-03-01T02:28:50;131.30;;;23.67;;
56161;SDS011;42045;52.986;6.014;2023-03-01T02:31:17;143.63;;;22.92;;
56161;SDS011;42045;52.986;6.014;2023-03-01T02:34:03;142.70;;;22.27;;
56161;SDS011;42045;52.986;6.014;2023-03-01T02:36:38;192.43;;;24.02;;
56161;SDS011;42045;52.986;6.014;2023-03-01T02:39:11;217.30;;;24.90;;
56161;SDS011;42045;52.986;6.014;2023-03-01T02:41:43;242.73;;;25.52;;
56161;SDS011;42045;52.986;6.014;2023-03-01T02:44:12;261.48;;;26.17;;
56161;SDS011;42045;52.986;6.014;2023-03-01T02:46:42;265.33;;;26.98;;
56161;SDS011;42045;52.986;6.014;2023-03-01T02:49:23;203.63;;;24.13;;
56161;SDS011;42045;52.986;6.014;2023-03-01T02:57:40;147.13;;;21.52;;
56161;SDS011;42045;52.986;6.014;2023-03-01T03:02:44;266.30;;;26.17;;
56161;SDS011;42045;52.986;6.014;2023-03-01T03:05:16;212.10;;;24.77;;
56161;SDS011;42045;52.986;6.014;2023-03-01T03:07:47;263.50;;;25.10;;
56161;SDS011;42045;52.986;6.014;2023-03-01T03:10:19;384.42;;;29.83;;
56161;SDS011;42045;52.986;6.014;2023-03-01T03:12:50;257.65;;;25.92;;
56161;SDS011;42045;52.986;6.014;2023-03-01T03:15:17;206.02;;;22.85;;
56161;SDS011;42045;52.986;6.014;2023-03-01T03:17:43;206.77;;;25.00;;
56161;SDS011;42045;52.986;6.014;2023-03-01T03:20:10;209.85;;;24.77;;
56161;SDS011;42045;52.986;6.014;2023-03-01T03:22:40;179.63;;;22.27;;
56161;SDS011;42045;52.986;6.014;2023-03-01T03:25:06;106.93;;;18.90;;
56161;SDS011;42045;52.986;6.014;2023-03-01T03:27:39;74.18;;;17.85;;
56161;SDS011;42045;52.986;6.014;2023-03-01T03:30:07;44.97;;;15.57;;
56161;SDS011;42045;52.986;6.014;2023-03-01T03:32:35;110.03;;;18.05;;
56161;SDS011;42045;52.986;6.014;2023-03-01T03:35:01;101.05;;;16.52;;
56161;SDS011;42045;52.986;6.014;2023-03-01T03:37:35;85.15;;;16.80;;
56161;SDS011;42045;52.986;6.014;2023-03-01T03:40:20;78.25;;;16.52;;
56161;SDS011;42045;52.986;6.014;2023-03-01T03:42:46;113.60;;;17.70;;
56161;SDS011;42045;52.986;6.014;2023-03-01T03:45:11;120.45;;;19.85;;
56161;SDS011;42045;52.986;6.014;2023-03-01T03:47:37;95.57;;;17.70;;
56161;SDS011;42045;52.986;6.014;2023-03-01T03:50:03;120.50;;;19.63;;
56161;SDS011;42045;52.986;6.014;2023-03-01T03:52:28;66.13;;;17.30;;
56161;SDS011;42045;52.986;6.014;2023-03-01T03:54:54;47.08;;;16.13;;
56161;SDS011;42045;52.986;6.014;2023-03-01T03:57:20;54.63;;;16.58;;
56161;SDS011;42045;52.986;6.014;2023-03-01T03:59:46;90.38;;;18.33;;
56161;SDS011;42045;52.986;6.014;2023-03-01T04:02:11;85.50;;;16.50;;
56161;SDS011;42045;52.986;6.014;2023-03-01T04:04:38;83.63;;;16.25;;
56161;SDS011;42045;52.986;6.014;2023-03-01T04:07:04;81.30;;;15.68;;
56161;SDS011;42045;52.986;6.014;2023-03-01T04:09:29;88.15;;;16.35;;
56161;SDS011;42045;52.986;6.014;2023-03-01T04:11:55;77.20;;;17.05;;
56161;SDS011;42045;52.986;6.014;2023-03-01T04:14:21;119.13;;;17.83;;
56161;SDS011;42045;52.986;6.014;2023-03-01T04:16:46;140.32;;;18.38;;
56161;SDS011;42045;52.986;6.014;2023-03-01T04:19:12;133.52;;;18.10;;
56161;SDS011;42045;52.986;6.014;2023-03-01T04:21:40;153.88;;;17.75;;
56161;SDS011;42045;52.986;6.014;2023-03-01T04:24:05;210.38;;;21.98;;
56161;SDS011;42045;52.986;6.014;2023-03-01T04:26:31;229.32;;;22.13;;
56161;SDS011;42045;52.986;6.014;2023-03-01T04:28:57;224.70;;;21.15;;
56161;SDS011;42045;52.986;6.014;2023-03-01T04:31:23;198.65;;;20.33;;
56161;SDS011;42045;52.986;6.014;2023-03-01T04:33:50;129.15;;;17.65;;
56161;SDS011;42045;52.986;6.014;2023-03-01T04:36:17;132.90;;;16.60;;
56161;SDS011;42045;52.986;6.014;2023-03-01T04:38:45;110.47;;;16.70;;
56161;SDS011;42045;52.986;6.014;2023-03-01T04:41:14;88.03;;;15.45;;
56161;SDS011;42045;52.986;6.014;2023-03-01T04:43:42;80.72;;;15.23;;
56161;SDS011;42045;52.986;6.014;2023-03-01T04:46:10;54.20;;;14.20;;
56161;SDS011;42045;52.986;6.014;2023-03-01T04:48:38;110.85;;;15.15;;
56161;SDS011;42045;52.986;6.014;2023-03-01T04:51:05;129.93;;;17.70;;
56161;SDS011;42045;52.986;6.014;2023-03-01T04:53:31;120.97;;;17.30;;
56161;SDS011;42045;52.986;6.014;2023-03-01T04:55:58;104.65;;;17.08;;
56161;SDS011;42045;52.986;6.014;2023-03-01T04:58:24;71.85;;;15.80;;
56161;SDS011;42045;52.986;6.014;2023-03-01T05:00:51;95.63;;;15.48;;
56161;SDS011;42045;52.986;6.014;2023-03-01T05:03:18;121.75;;;17.77;;
56161;SDS011;42045;52.986;6.014;2023-03-01T05:05:45;92.10;;;14.95;;
56161;SDS011;42045;52.986;6.014;2023-03-01T05:08:12;90.55;;;15.18;;
56161;SDS011;42045;52.986;6.014;2023-03-01T05:10:43;106.20;;;16.02;;
56161;SDS011;42045;52.986;6.014;2023-03-01T05:13:11;83.35;;;16.48;;
56161;SDS011;42045;52.986;6.014;2023-03-01T05:15:38;88.10;;;15.50;;
56161;SDS011;42045;52.986;6.014;2023-03-01T05:18:04;52.55;;;14.73;;
56161;SDS011;42045;52.986;6.014;2023-03-01T05:20:36;70.38;;;15.15;;
56161;SDS011;42045;52.986;6.014;2023-03-01T05:23:03;53.38;;;14.07;;
56161;SDS011;42045;52.986;6.014;2023-03-01T05:25:30;43.60;;;13.48;;
56161;SDS011;42045;52.986;6.014;2023-03-01T05:28:00;43.08;;;13.30;;
56161;SDS011;42045;52.986;6.014;2023-03-01T05:30:32;140.13;;;16.10;;
56161;SDS011;42045;52.986;6.014;2023-03-01T05:32:58;85.53;;;16.27;;
56161;SDS011;42045;52.986;6.014;2023-03-01T05:35:24;96.32;;;15.60;;
56161;SDS011;42045;52.986;6.014;2023-03-01T05:37:51;103.78;;;15.73;;
56161;SDS011;42045;52.986;6.014;2023-03-01T05:40:17;123.93;;;17.92;;
56161;SDS011;42045;52.986;6.014;2023-03-01T05:42:46;73.68;;;16.15;;
56161;SDS011;42045;52.986;6.014;2023-03-01T05:45:13;103.47;;;16.38;;
56161;SDS011;42045;52.986;6.014;2023-03-01T05:47:40;129.10;;;16.70;;
56161;SDS011;42045;52.986;6.014;2023-03-01T05:50:13;39.40;;;13.52;;
56161;SDS011;42045;52.986;6.014;2023-03-01T05:53:00;60.17;;;12.80;;
56161;SDS011;42045;52.986;6.014;2023-03-01T05:55:28;45.17;;;13.75;;
56161;SDS011;42045;52.986;6.014;2023-03-01T05:57:55;66.78;;;14.68;;
56161;SDS011;42045;52.986;6.014;2023-03-01T06:00:23;58.35;;;14.40;;
56161;SDS011;42045;52.986;6.014;2023-03-01T06:02:49;46.33;;;14.02;;
56161;SDS011;42045;52.986;6.014;2023-03-01T06:05:17;50.60;;;14.65;;
56161;SDS011;42045;52.986;6.014;2023-03-01T06:07:42;41.50;;;20.08;;
56161;SDS011;42045;52.986;6.014;2023-03-01T06:10:09;41.55;;;20.10;;
56161;SDS011;42045;52.986;6.014;2023-03-01T06:12:36;114.03;;;32.80;;
56161;SDS011;42045;52.986;6.014;2023-03-01T06:15:03;75.80;;;30.02;;
56161;SDS011;42045;52.986;6.014;2023-03-01T06:17:31;89.78;;;36.42;;
56161;SDS011;42045;52.986;6.014;2023-03-01T06:20:02;59.67;;;29.38;;
56161;SDS011;42045;52.986;6.014;2023-03-01T06:22:29;19.98;;;14.65;;
56161;SDS011;42045;52.986;6.014;2023-03-01T06:24:55;18.90;;;14.20;;
56161;SDS011;42045;52.986;6.014;2023-03-01T06:27:21;22.67;;;17.20;;
56161;SDS011;42045;52.986;6.014;2023-03-01T06:29:46;24.40;;;17.83;;
56161;SDS011;42045;52.986;6.014;2023-03-01T06:32:12;27.80;;;21.75;;
56161;SDS011;42045;52.986;6.014;2023-03-01T06:34:38;24.88;;;18.73;;
56161;SDS011;42045;52.986;6.014;2023-03-01T06:37:03;20.05;;;14.88;;
56161;SDS011;42045;52.986;6.014;2023-03-01T06:39:30;23.23;;;15.98;;
56161;SDS011;42045;52.986;6.014;2023-03-01T06:41:56;19.40;;;14.48;;
56161;SDS011;42045;52.986;6.014;2023-03-01T06:44:22;18.50;;;13.27;;
56161;SDS011;42045;52.986;6.014;2023-03-01T06:46:47;18.65;;;14.32;;
56161;SDS011;42045;52.986;6.014;2023-03-01T06:49:13;18.33;;;12.75;;
56161;SDS011;42045;52.986;6.014;2023-03-01T06:51:41;13.82;;;11.85;;
56161;SDS011;42045;52.986;6.014;2023-03-01T06:54:06;13.20;;;11.10;;
56161;SDS011;42045;52.986;6.014;2023-03-01T06:56:32;12.57;;;10.73;;
56161;SDS011;42045;52.986;6.014;2023-03-01T06:58:58;13.73;;;11.65;;
56161;SDS011;42045;52.986;6.014;2023-03-01T07:01:24;21.35;;;11.88;;
56161;SDS011;42045;52.986;6.014;2023-03-01T07:03:50;13.65;;;12.20;;
56161;SDS011;42045;52.986;6.014;2023-03-01T07:06:15;12.77;;;11.05;;
56161;SDS011;42045;52.986;6.014;2023-03-01T07:08:42;12.48;;;10.77;;
56161;SDS011;42045;52.986;6.014;2023-03-01T07:11:08;11.48;;;10.15;;
56161;SDS011;42045;52.986;6.014;2023-03-01T07:13:34;12.43;;;10.65;;
56161;SDS011;42045;52.986;6.014;2023-03-01T07:16:00;11.85;;;10.27;;
56161;SDS011;42045;52.986;6.014;2023-03-01T07:18:25;11.75;;;10.43;;
56161;SDS011;42045;52.986;6.014;2023-03-01T07:20:51;12.77;;;11.10;;
56161;SDS011;42045;52.986;6.014;2023-03-01T07:23:17;12.48;;;10.43;;
56161;SDS011;42045;52.986;6.014;2023-03-01T07:25:42;11.48;;;10.27;;
56161;SDS011;42045;52.986;6.014;2023-03-01T07:28:08;14.15;;;11.23;;
56161;SDS011;42045;52.986;6.014;2023-03-01T07:30:34;14.05;;;11.70;;
56161;SDS011;42045;52.986;6.014;2023-03-01T07:32:59;13.23;;;11.38;;
56161;SDS011;42045;52.986;6.014;2023-03-01T07:35:26;15.52;;;12.23;;
56161;SDS011;42045;52.986;6.014;2023-03-01T07:37:52;13.98;;;12.25;;
56161;SDS011;42045;52.986;6.014;2023-03-01T07:40:18;14.27;;;12.68;;
56161;SDS011;42045;52.986;6.014;2023-03-01T07:42:44;15.15;;;13.00;;
56161;SDS011;42045;52.986;6.014;2023-03-01T07:45:26;15.52;;;13.50;;
56161;SDS011;42045;52.986;6.014;2023-03-01T07:47:52;16.17;;;13.25;;
56161;SDS011;42045;52.986;6.014;2023-03-01T07:50:18;16.70;;;13.70;;
56161;SDS011;42045;52.986;6.014;2023-03-01T07:52:44;15.52;;;13.88;;
56161;SDS011;42045;52.986;6.014;2023-03-01T07:55:11;18.33;;;13.90;;
56161;SDS011;42045;52.986;6.014;2023-03-01T07:57:37;17.58;;;14.05;;
56161;SDS011;42045;52.986;6.014;2023-03-01T08:00:04;16.17;;;14.48;;
56161;SDS011;42045;52.986;6.014;2023-03-01T08:02:30;17.02;;;14.68;;
56161;SDS011;42045;52.986;6.014;2023-03-01T08:04:56;19.65;;;15.63;;
56161;SDS011;42045;52.986;6.014;2023-03-01T08:07:22;18.70;;;15.60;;
56161;SDS011;42045;52.986;6.014;2023-03-01T08:09:48;17.10;;;15.25;;
56161;SDS011;42045;52.986;6.014;2023-03-01T08:12:14;17.92;;;15.20;;
56161;SDS011;42045;52.986;6.014;2023-03-01T08:14:41;20.27;;;15.27;;
56161;SDS011;42045;52.986;6.014;2023-03-01T08:17:07;18.40;;;16.40;;
56161;SDS011;42045;52.986;6.014;2023-03-01T08:19:33;18.77;;;16.45;;
56161;SDS011;42045;52.986;6.014;2023-03-01T08:22:00;20.55;;;16.67;;
56161;SDS011;42045;52.986;6.014;2023-03-01T08:24:27;19.85;;;17.20;;
56161;SDS011;42045;52.986;6.014;2023-03-01T08:26:53;20.15;;;17.88;;
56161;SDS011;42045;52.986;6.014;2023-03-01T08:29:19;19.13;;;16.83;;
56161;SDS011;42045;52.986;6.014;2023-03-01T08:31:45;22.00;;;18.15;;
56161;SDS011;42045;52.986;6.014;2023-03-01T08:34:14;22.27;;;19.45;;
56161;SDS011;42045;52.986;6.014;2023-03-01T08:36:43;22.77;;;18.42;;
56161;SDS011;42045;52.986;6.014;2023-03-01T08:39:10;23.65;;;18.33;;
56161;SDS011;42045;52.986;6.014;2023-03-01T08:41:38;26.15;;;21.30;;
56161;SDS011;42045;52.986;6.014;2023-03-01T08:44:04;25.77;;;20.73;;
56161;SDS011;42045;52.986;6.014;2023-03-01T08:46:32;27.77;;;22.75;;
56161;SDS011;42045;52.986;6.014;2023-03-01T08:49:20;31.85;;;24.35;;
56161;SDS011;42045;52.986;6.014;2023-03-01T08:51:47;27.17;;;22.25;;
56161;SDS011;42045;52.986;6.014;2023-03-01T08:54:14;32.05;;;24.65;;
56161;SDS011;42045;52.986;6.014;2023-03-01T08:56:41;31.92;;;24.35;;
56161;SDS011;42045;52.986;6.014;2023-03-01T08:59:07;29.67;;;24.10;;
56161;SDS011;42045;52.986;6.014;2023-03-01T09:01:34;33.83;;;25.75;;
56161;SDS011;42045;52.986;6.014;2023-03-01T09:03:59;30.80;;;24.67;;
56161;SDS011;42045;52.986;6.014;2023-03-01T09:06:25;31.30;;;25.05;;
56161;SDS011;42045;52.986;6.014;2023-03-01T09:08:51;36.72;;;27.35;;
56161;SDS011;42045;52.986;6.014;2023-03-01T09:11:18;35.80;;;27.95;;
56161;SDS011;42045;52.986;6.014;2023-03-01T09:13:46;36.05;;;28.88;;
56161;SDS011;42045;52.986;6.014;2023-03-01T09:16:13;35.10;;;29.33;;
56161;SDS011;42045;52.986;6.014;2023-03-01T09:22:14;34.55;;;26.75;;
56161;SDS011;42045;52.986;6.014;2023-03-01T09:24:40;36.40;;;25.67;;
56161;SDS011;42045;52.986;6.014;2023-03-01T09:27:06;31.75;;;26.27;;
56161;SDS011;42045;52.986;6.014;2023-03-01T09:29:34;33.55;;;25.92;;
56161;SDS011;42045;52.986;6.014;2023-03-01T09:32:02;33.30;;;26.00;;
56161;SDS011;42045;52.986;6.014;2023-03-01T09:34:28;33.25;;;25.67;;
56161;SDS011;42045;52.986;6.014;2023-03-01T09:36:54;35.25;;;25.65;;
56161;SDS011;42045;52.986;6.014;2023-03-01T09:39:20;34.78;;;26.40;;
56161;SDS011;42045;52.986;6.014;2023-03-01T09:44:38;33.92;;;26.83;;
56161;SDS011;42045;52.986;6.014;2023-03-01T09:47:17;30.77;;;24.52;;
56161;SDS011;42045;52.986;6.014;2023-03-01T09:49:58;35.85;;;26.27;;
56161;SDS011;42045;52.986;6.014;2023-03-01T09:55:10;30.08;;;26.05;;
56161;SDS011;42045;52.986;6.014;2023-03-01T10:03:03;28.23;;;21.75;;
56161;SDS011;42045;52.986;6.014;2023-03-01T10:05:44;27.85;;;21.83;;
56161;SDS011;42045;52.986;6.014;2023-03-01T10:18:42;21.17;;;17.45;;
56161;SDS011;42045;52.986;6.014;2023-03-01T10:21:17;23.48;;;18.75;;
56161;SDS011;42045;52.986;6.014;2023-03-01T10:23:44;24.10;;;19.95;;
56161;SDS011;42045;52.986;6.014;2023-03-01T10:34:12;19.50;;;16.70;;
56161;SDS011;42045;52.986;6.014;2023-03-01T10:36:44;18.80;;;16.40;;
56161;SDS011;42045;52.986;6.014;2023-03-01T10:39:16;18.48;;;14.70;;
56161;SDS011;42045;52.986;6.014;2023-03-01T10:41:52;18.48;;;15.52;;
56161;SDS011;42045;52.986;6.014;2023-03-01T10:44:36;18.08;;;14.85;;
56161;SDS011;42045;52.986;6.014;2023-03-01T10:47:05;19.13;;;14.95;;
56161;SDS011;42045;52.986;6.014;2023-03-01T10:49:49;17.02;;;15.10;;
56161;SDS011;42045;52.986;6.014;2023-03-01T10:52:28;18.20;;;14.90;;
56161;SDS011;42045;52.986;6.014;2023-03-01T10:55:03;18.65;;;14.48;;
56161;SDS011;42045;52.986;6.014;2023-03-01T10:57:41;16.13;;;14.02;;
56161;SDS011;42045;52.986;6.014;2023-03-01T11:00:18;18.75;;;14.65;;
56161;SDS011;42045;52.986;6.014;2023-03-01T11:02:47;15.63;;;13.73;;
56161;SDS011;42045;52.986;6.014;2023-03-01T11:05:37;16.52;;;13.90;;
56161;SDS011;42045;52.986;6.014;2023-03-01T11:08:25;16.67;;;12.77;;
56161;SDS011;42045;52.986;6.014;2023-03-01T11:11:07;31.05;;;25.02;;
56161;SDS011;42045;52.986;6.014;2023-03-01T11:14:15;15.23;;;13.10;;
56161;SDS011;42045;52.986;6.014;2023-03-01T11:17:27;16.85;;;15.13;;
56161;SDS011;42045;52.986;6.014;2023-03-01T11:19:59;14.45;;;12.55;;
56161;SDS011;42045;52.986;6.014;2023-03-01T11:22:25;16.55;;;14.23;;
56161;SDS011;42045;52.986;6.014;2023-03-01T11:24:53;15.95;;;13.88;;
56161;SDS011;42045;52.986;6.014;2023-03-01T11:27:53;16.05;;;13.70;;
56161;SDS011;42045;52.986;6.014;2023-03-01T11:35:57;16.25;;;13.60;;
56161;SDS011;42045;52.986;6.014;2023-03-01T11:38:29;18.35;;;13.38;;
56161;SDS011;42045;52.986;6.014;2023-03-01T11:51:37;17.25;;;12.88;;
56161;SDS011;42045;52.986;6.014;2023-03-01T11:56:48;13.10;;;11.65;;
56161;SDS011;42045;52.986;6.014;2023-03-01T12:08:14;16.85;;;12.68;;
56161;SDS011;42045;52.986;6.014;2023-03-01T12:13:34;14.30;;;12.27;;
56161;SDS011;42045;52.986;6.014;2023-03-01T12:22:01;15.10;;;13.07;;
56161;SDS011;42045;52.986;6.014;2023-03-01T12:24:47;16.38;;;13.07;;
56161;SDS011;42045;52.986;6.014;2023-03-01T12:27:30;15.85;;;13.07;;
56161;SDS011;42045;52.986;6.014;2023-03-01T12:35:51;17.90;;;14.27;;
56161;SDS011;42045;52.986;6.014;2023-03-01T12:38:42;16.40;;;13.77;;
56161;SDS011;42045;52.986;6.014;2023-03-01T12:49:39;18.27;;;15.15;;
56161;SDS011;42045;52.986;6.014;2023-03-01T12:54:45;16.63;;;14.25;;
56161;SDS011;42045;52.986;6.014;2023-03-01T13:03:10;22.02;;;15.32;;
56161;SDS011;42045;52.986;6.014;2023-03-01T13:06:14;20.63;;;15.45;;
56161;SDS011;42045;52.986;6.014;2023-03-01T13:08:49;17.90;;;15.10;;
56161;SDS011;42045;52.986;6.014;2023-03-01T13:11:25;16.88;;;14.02;;
56161;SDS011;42045;52.986;6.014;2023-03-01T13:13:51;18.60;;;14.35;;
56161;SDS011;42045;52.986;6.014;2023-03-01T13:16:38;16.55;;;13.55;;
56161;SDS011;42045;52.986;6.014;2023-03-01T13:19:08;16.20;;;14.18;;
56161;SDS011;42045;52.986;6.014;2023-03-01T13:21:35;19.88;;;14.05;;
56161;SDS011;42045;52.986;6.014;2023-03-01T13:24:01;16.40;;;13.55;;
56161;SDS011;42045;52.986;6.014;2023-03-01T13:26:26;15.25;;;12.60;;
56161;SDS011;42045;52.986;6.014;2023-03-01T13:28:58;18.17;;;13.80;;
56161;SDS011;42045;52.986;6.014;2023-03-01T13:33:55;19.05;;;14.18;;
56161;SDS011;42045;52.986;6.014;2023-03-01T13:46:42;18.02;;;13.85;;
56161;SDS011;42045;52.986;6.014;2023-03-01T13:49:09;15.25;;;12.80;;
56161;SDS011;42045;52.986;6.014;2023-03-01T13:51:39;15.57;;;13.77;;
56161;SDS011;42045;52.986;6.014;2023-03-01T13:54:05;18.48;;;13.18;;
56161;SDS011;42045;52.986;6.014;2023-03-01T13:56:36;18.80;;;15.05;;
56161;SDS011;42045;52.986;6.014;2023-03-01T13:59:19;16.50;;;13.75;;
56161;SDS011;42045;52.986;6.014;2023-03-01T14:01:53;15.40;;;13.52;;
56161;SDS011;42045;52.986;6.014;2023-03-01T14:04:24;17.48;;;14.48;;
56161;SDS011;42045;52.986;6.014;2023-03-01T14:06:50;16.35;;;13.77;;
56161;SDS011;42045;52.986;6.014;2023-03-01T14:20:59;15.77;;;14.02;;
56161;SDS011;42045;52.986;6.014;2023-03-01T14:23:10;18.48;;;13.50;;
56161;SDS011;42045;52.986;6.014;2023-03-01T14:25:38;16.50;;;14.38;;
56161;SDS011;42045;52.986;6.014;2023-03-01T14:30:52;19.48;;;14.55;;
56161;SDS011;42045;52.986;6.014;2023-03-01T14:36:02;15.43;;;13.13;;
56161;SDS011;42045;52.986;6.014;2023-03-01T14:38:36;17.23;;;14.88;;
56161;SDS011;42045;52.986;6.014;2023-03-01T14:41:13;16.85;;;14.82;;
56161;SDS011;42045;52.986;6.014;2023-03-01T14:43:41;16.92;;;14.95;;
56161;SDS011;42045;52.986;6.014;2023-03-01T14:46:19;18.30;;;14.68;;
56161;SDS011;42045;52.986;6.014;2023-03-01T14:48:52;17.38;;;14.57;;
56161;SDS011;42045;52.986;6.014;2023-03-01T14:51:26;16.77;;;13.50;;
56161;SDS011;42045;52.986;6.014;2023-03-01T14:53:52;17.88;;;15.15;;
56161;SDS011;42045;52.986;6.014;2023-03-01T14:56:18;17.85;;;14.93;;
56161;SDS011;42045;52.986;6.014;2023-03-01T14:58:44;16.48;;;13.55;;
56161;SDS011;42045;52.986;6.014;2023-03-01T15:01:16;16.75;;;14.88;;
56161;SDS011;42045;52.986;6.014;2023-03-01T15:03:46;18.38;;;15.45;;
56161;SDS011;42045;52.986;6.014;2023-03-01T15:06:17;17.42;;;14.13;;
56161;SDS011;42045;52.986;6.014;2023-03-01T15:08:49;18.90;;;15.27;;
56161;SDS011;42045;52.986;6.014;2023-03-01T15:11:21;19.58;;;15.45;;
56161;SDS011;42045;52.986;6.014;2023-03-01T15:13:50;18.67;;;15.63;;
56161;SDS011;42045;52.986;6.014;2023-03-01T15:16:18;19.50;;;16.33;;
56161;SDS011;42045;52.986;6.014;2023-03-01T15:19:06;22.60;;;16.92;;
56161;SDS011;42045;52.986;6.014;2023-03-01T15:21:33;19.02;;;15.95;;
56161;SDS011;42045;52.986;6.014;2023-03-01T15:24:03;18.40;;;16.45;;
56161;SDS011;42045;52.986;6.014;2023-03-01T15:26:30;19.77;;;15.65;;
56161;SDS011;42045;52.986;6.014;2023-03-01T15:29:00;20.80;;;16.67;;
56161;SDS011;42045;52.986;6.014;2023-03-01T15:34:08;22.02;;;17.27;;
56161;SDS011;42045;52.986;6.014;2023-03-01T15:39:23;17.88;;;15.73;;
56161;SDS011;42045;52.986;6.014;2023-03-01T15:47:58;18.52;;;15.73;;
56161;SDS011;42045;52.986;6.014;2023-03-01T15:50:34;16.92;;;14.00;;
56161;SDS011;42045;52.986;6.014;2023-03-01T15:53:05;19.52;;;15.75;;
56161;SDS011;42045;52.986;6.014;2023-03-01T15:55:36;16.88;;;14.70;;
56161;SDS011;42045;52.986;6.014;2023-03-01T15:58:18;16.98;;;14.70;;
56161;SDS011;42045;52.986;6.014;2023-03-01T16:00:46;18.25;;;14.48;;
56161;SDS011;42045;52.986;6.014;2023-03-01T16:03:14;17.75;;;15.55;;
56161;SDS011;42045;52.986;6.014;2023-03-01T16:05:46;20.70;;;16.77;;
56161;SDS011;42045;52.986;6.014;2023-03-01T16:08:13;19.40;;;15.30;;
56161;SDS011;42045;52.986;6.014;2023-03-01T16:10:40;19.98;;;15.05;;
56161;SDS011;42045;52.986;6.014;2023-03-01T16:13:08;18.85;;;15.80;;
56161;SDS011;42045;52.986;6.014;2023-03-01T16:15:38;19.75;;;16.15;;
56161;SDS011;42045;52.986;6.014;2023-03-01T16:18:04;22.25;;;16.88;;
56161;SDS011;42045;52.986;6.014;2023-03-01T16:20:31;21.77;;;16.90;;
56161;SDS011;42045;52.986;6.014;2023-03-01T16:23:07;21.10;;;16.95;;
56161;SDS011;42045;52.986;6.014;2023-03-01T16:25:35;22.33;;;17.83;;
56161;SDS011;42045;52.986;6.014;2023-03-01T16:28:01;20.80;;;17.40;;
56161;SDS011;42045;52.986;6.014;2023-03-01T16:30:33;22.50;;;19.00;;
56161;SDS011;42045;52.986;6.014;2023-03-01T16:33:00;22.65;;;18.58;;
56161;SDS011;42045;52.986;6.014;2023-03-01T16:35:26;22.05;;;18.55;;
56161;SDS011;42045;52.986;6.014;2023-03-01T16:37:52;23.70;;;18.67;;
56161;SDS011;42045;52.986;6.014;2023-03-01T16:40:25;23.38;;;19.08;;
56161;SDS011;42045;52.986;6.014;2023-03-01T16:42:53;24.48;;;20.52;;
56161;SDS011;42045;52.986;6.014;2023-03-01T16:45:25;23.98;;;19.52;;
56161;SDS011;42045;52.986;6.014;2023-03-01T16:47:58;24.02;;;20.40;;
56161;SDS011;42045;52.986;6.014;2023-03-01T16:50:24;26.17;;;19.75;;
56161;SDS011;42045;52.986;6.014;2023-03-01T16:52:50;23.50;;;19.63;;
56161;SDS011;42045;52.986;6.014;2023-03-01T16:55:16;27.30;;;20.50;;
56161;SDS011;42045;52.986;6.014;2023-03-01T16:57:41;26.10;;;20.33;;
56161;SDS011;42045;52.986;6.014;2023-03-01T17:00:08;24.48;;;19.83;;
56161;SDS011;42045;52.986;6.014;2023-03-01T17:02:35;24.23;;;20.02;;